AirNav   Air Wisconsin Airman Trainee
 
 934 users online  

8OR6 Grabhorn's Airport
Scappoose, Oregon, USA

GOING TO SCAPPOOSE?


FAA INFORMATION EFFECTIVE 31 JANUARY 2019

Location

FAA Identifier: 8OR6
Lat/Long: 45-46-56.4100N / 122-53-38.3770W
45-46.940167N / 122-53.639617W
45.7823361 / -122.8939936
(estimated)
Elevation: 255 ft. / 78 m (estimated)
Variation: 20E (1985)
From city: 3 miles N of SCAPPOOSE, OR
Time zone: UTC -8 (UTC -7 during Daylight Saving Time)
Zip code: 97053

Airport Operations

Airport use: Private use. Permission required prior to landing
Activation date: 01/1979
Control tower: no
ARTCC: SEATTLE CENTER
FSS: MC MINNVILLE FLIGHT SERVICE STATION
Attendance: DAYLIGHT HOURS
Wind indicator: yes
Segmented circle: no

Airport Communications

WX ASOS at SPB (1.5 nm SE): 135.875 (503-543-6401)
WX ASOS at VUO (14 nm SE): 135.125 (360-696-1280)
WX ASOS at HIO (15 nm S): PHONE 503-640-2984
WX ASOS at PDX (17 nm SE): PHONE (503) 493-7687

Nearby radio navigation aids

VOR radial/distance  VOR name  Freq  Var
BTGr258/12.8BATTLE GROUND VORTAC116.6021E
UBGr347/26.0NEWBERG VOR/DME117.4021E

 
NDB name  Hdg/Dist  Freq  Var  ID
BANKS019/11.135616EPND .--. -. -..
KELSO161/22.425617ELSO .-.. ... ---

Airport Services

Runway Information

Runway 16/34

Dimensions: 1800 x 80 ft. / 549 x 24 m
800' OVERRUN NORTH END RWY 16.
Surface: turf/gravel
Operational restrictions: LAND SOUTH; TAKE OFF NORTH; AVOID HOMES TO WEST
RUNWAY 16  RUNWAY 34
Traffic pattern: rightleft
Obstructions: trees, 800 ft. from runwaypline

Airport Ownership and Management from official FAA records

Ownership: Privately-owned
Owner: BART GRABHORN
32821 WIKSTROM RD
SCAPPOOSE, OR 97056
Phone (503) 250-3455
Manager: BART GRABHORN
32821 WIKSTROM RD
SCAPPOOSE, OR 97056
Phone (503) 250-3455

Airport Operational Statistics

Aircraft based on the field: 1
Single engine airplanes: 1
    

Additional Remarks

FOR CD CTC PORTLAND APCH AT 503-493-7545.

Instrument Procedures

There are no published instrument procedures at 8OR6.

Some nearby airports with instrument procedures:

KSPB - Scappoose Industrial Airpark (2 nm SE)
KVUO - Pearson Field Airport (14 nm SE)
KHIO - Portland-Hillsboro Airport (15 nm S)
KPDX - Portland International Airport (17 nm SE)
KKLS - Southwest Washington Regional Airport (20 nm N)
 
Loc | Ops | Rwys | IFR | FBO | Links
Com | Nav | Svcs | Stats | Notes
Area around 8OR6 (Grabhorn's Airport)
 
Road maps at: MapQuest Bing Google
 
Aerial photo
WARNING: Photo may not be current or correct
Aerial photo of 8OR6 (Grabhorn's Airport)
Do you have a better or more recent aerial photo of Grabhorn's Airport that you would like to share? If so, please send us your photo.

 
Sectional chart

 
Airport distance calculator
Flying to Grabhorn's Airport? Find the distance to fly.

From to 8OR6

Sunrise and sunset
Times for 23-Feb-2019
 Local
(UTC-8)
 Zulu
(UTC)
Morning civil twilight06:3114:31
Sunrise07:0215:02
Sunset17:4801:48
Evening civil twilight18:1902:19

Current date and time
Zulu (UTC)  24-Feb-2019 00:17:08
Local (UTC-8)  23-Feb-2019 16:17:08
 
METAR
KSPB 232353Z AUTO 09003KT 10SM SCT048 BKN080 OVC090 08/04 A3009 RMK AO2 SLP190 60004 T00830039 10083 20061 58013
KHIO 
14nm S 
232353Z 06004KT 10SM BKN022 BKN025 OVC085 07/03 A3009 RMK AO2 SLP189 60001 T00670033 10078 20044 58011
KVUO 
14nm SE 
232353Z AUTO 11007KT 10SM FEW009 BKN060 OVC090 06/04 A3010 RMK AO2 RAE2254 SLP194 P0000 60005 T00610044 10072 20050 58005
KPDX 
17nm SE 
240001Z 11009KT 10SM FEW011 BKN019 OVC065 06/06 A3011 RMK AO2 T00610056
TAF
KHIO 
14nm S 
231859Z 2319/2418 00000KT P6SM VCSH OVC013 FM232100 17003KT P6SM VCSH SCT025 BKN080 FM240400 11003KT 5SM -RA OVC008
KPDX 
17nm SE 
232255Z 2323/2418 VRB03KT 6SM -SHRA SCT015 BKN025 OVC040 FM240800 09005KT 5SM -RA SCT007 BKN015 OVC025 FM241400 12005KT P6SM -SHRA SCT015 OVC025
NOTAMs
Click for the latest NOTAMs
NOTAMs are issued by the DoD/FAA and will open in a separate window not controlled by AirNav.

 

 
 

Would you like to see your business listed on this page?

 If your business provides an interesting product or service to pilots, flight crews, aircraft, or users of the Grabhorn's Airport, you should consider listing it here.  To start the listing process, click on the button below
 
Add a business
 

Other Pages about Grabhorn's Airport

Update a link
 
Copyright © AirNav, LLC. All rights reserved. Privacy Policy  Contact